createdAt,value
2023-02-23T00:01:42.346Z,40.65
2023-02-23T00:04:09.388Z,40.60
2023-02-23T00:06:37.413Z,42.95
2023-02-23T00:09:24.730Z,40.35
2023-02-23T00:11:53.030Z,43.40
2023-02-23T00:14:20.611Z,46.08
2023-02-23T00:16:47.118Z,41.63
2023-02-23T00:19:17.725Z,40.78
2023-02-23T00:21:45.332Z,39.58
2023-02-23T00:24:15.805Z,41.38
2023-02-23T00:26:42.942Z,40.25
2023-02-23T00:29:17.478Z,40.22
2023-02-23T00:31:45.522Z,45.05
2023-02-23T00:34:15.290Z,38.55
2023-02-23T00:36:42.700Z,45.10
2023-02-23T00:39:29.524Z,40.70
2023-02-23T00:41:56.912Z,45.55
2023-02-23T00:44:24.917Z,38.28
2023-02-23T00:46:52.782Z,41.35
2023-02-23T00:49:22.145Z,36.25
2023-02-23T00:51:48.707Z,38.97
2023-02-23T00:54:17.482Z,37.83
2023-02-23T00:56:45.831Z,41.28
2023-02-23T00:59:13.379Z,37.03
2023-02-23T01:01:42.138Z,40.40
2023-02-23T01:04:10.241Z,37.47
2023-02-23T01:06:38.014Z,38.05
2023-02-23T01:09:10.127Z,42.65
2023-02-23T01:11:38.267Z,38.45
2023-02-23T01:14:05.085Z,41.22
2023-02-23T01:16:35.380Z,40.03
2023-02-23T01:19:22.084Z,43.30
2023-02-23T01:22:09.276Z,44.17
2023-02-23T01:24:55.871Z,39.60
2023-02-23T01:27:43.729Z,40.58
2023-02-23T01:30:30.733Z,42.10
2023-02-23T01:33:17.504Z,42.05
2023-02-23T01:35:44.025Z,41.17
2023-02-23T01:38:14.069Z,42.05
2023-02-23T01:40:42.946Z,37.03
2023-02-23T01:43:14.232Z,41.05
2023-02-23T01:45:45.784Z,42.10
2023-02-23T01:48:20.476Z,38.45
2023-02-23T01:51:13.296Z,41.85
2023-02-23T01:53:44.821Z,44.38
2023-02-23T01:56:24.009Z,45.25
2023-02-23T01:58:53.472Z,43.67
2023-02-23T02:01:21.907Z,44.35
2023-02-23T02:03:53.877Z,44.47
2023-02-23T02:06:23.305Z,43.88
2023-02-23T02:08:55.549Z,41.85
2023-02-23T02:11:36.668Z,43.88
2023-02-23T02:14:13.133Z,42.80
2023-02-23T02:17:18.057Z,46.10
2023-02-23T02:20:26.293Z,40.80
2023-02-23T02:23:08.230Z,41.35
2023-02-23T02:25:49.521Z,41.13
2023-02-23T02:28:36.121Z,45.20
2023-02-23T02:31:27.431Z,45.97
2023-02-23T02:34:07.877Z,44.85
2023-02-23T02:36:54.739Z,46.15
2023-02-23T02:39:37.891Z,48.28
2023-02-23T02:42:35.494Z,40.22
2023-02-23T02:45:18.866Z,44.65
2023-02-23T02:48:04.682Z,41.42
2023-02-23T02:50:43.300Z,42.72
2023-02-23T02:53:24.157Z,52.10
2023-02-23T02:55:52.853Z,42.05
2023-02-23T02:58:20.279Z,44.88
2023-02-23T03:01:09.179Z,40.50
2023-02-23T03:04:00.858Z,53.63
2023-02-23T03:06:54.573Z,43.42
2023-02-23T03:10:07.108Z,47.72
2023-02-23T03:13:19.218Z,39.88
2023-02-23T03:16:17.774Z,39.08
2023-02-23T03:19:23.978Z,39.90
2023-02-23T03:22:26.162Z,36.63
2023-02-23T03:25:31.410Z,43.80
2023-02-23T03:28:40.091Z,45.03
2023-02-23T03:31:45.365Z,42.72
2023-02-23T03:34:32.702Z,40.22
2023-02-23T03:37:41.352Z,40.80
2023-02-23T03:40:35.144Z,39.70
2023-02-23T03:43:27.084Z,41.17
2023-02-23T03:46:16.448Z,33.83
2023-02-23T03:49:05.111Z,39.80
2023-02-23T03:51:54.322Z,36.00
2023-02-23T03:54:47.360Z,42.35
2023-02-23T03:57:37.560Z,46.42
2023-02-23T04:00:30.630Z,39.42
2023-02-23T04:03:19.285Z,43.03
2023-02-23T04:06:05.478Z,45.78
2023-02-23T04:08:56.922Z,45.30
2023-02-23T04:12:00.812Z,38.90
2023-02-23T04:14:44.014Z,47.42
2023-02-23T04:17:12.478Z,43.33
2023-02-23T04:19:38.914Z,45.33
2023-02-23T04:22:05.636Z,41.20
2023-02-23T04:24:33.133Z,42.65
2023-02-23T04:26:59.886Z,48.80
2023-02-23T04:29:26.419Z,47.13
2023-02-23T04:31:54.496Z,49.10
2023-02-23T04:34:20.973Z,50.78
2023-02-23T04:36:48.209Z,47.65
2023-02-23T04:39:15.289Z,53.00
2023-02-23T04:41:42.440Z,51.25
2023-02-23T04:44:08.888Z,52.38
2023-02-23T04:46:35.304Z,46.90
2023-02-23T04:49:02.598Z,45.22
2023-02-23T04:51:32.100Z,46.63
2023-02-23T04:53:59.665Z,51.75
2023-02-23T04:56:26.165Z,47.15
2023-02-23T04:58:53.438Z,49.72
2023-02-23T05:01:22.610Z,52.33
2023-02-23T05:03:50.322Z,52.65
2023-02-23T05:06:17.841Z,48.47
2023-02-23T05:08:45.837Z,46.95
2023-02-23T05:11:12.649Z,51.22
2023-02-23T05:13:39.874Z,56.28
2023-02-23T05:16:07.534Z,52.67
2023-02-23T05:18:34.304Z,53.03
2023-02-23T05:21:07.176Z,50.28
2023-02-23T05:23:35.252Z,46.80
2023-02-23T05:26:04.095Z,49.95
2023-02-23T05:28:31.064Z,51.03
2023-02-23T05:30:58.010Z,47.92
2023-02-23T05:33:24.517Z,43.65
2023-02-23T05:35:51.252Z,45.90
2023-02-23T05:38:18.699Z,51.83
2023-02-23T05:40:45.170Z,44.10
2023-02-23T05:43:11.988Z,49.10
2023-02-23T05:45:43.127Z,48.05
2023-02-23T05:48:11.543Z,44.75
2023-02-23T05:50:38.767Z,46.03
2023-02-23T05:53:05.999Z,46.63
2023-02-23T05:55:32.633Z,49.47
2023-02-23T05:57:59.707Z,50.70
2023-02-23T06:00:26.090Z,52.45
2023-02-23T06:02:54.178Z,44.97
2023-02-23T06:05:20.766Z,51.00
2023-02-23T06:07:48.368Z,50.05
2023-02-23T06:10:14.792Z,51.58
2023-02-23T06:12:41.966Z,54.83
2023-02-23T06:15:08.748Z,46.20
2023-02-23T06:17:36.220Z,48.95
2023-02-23T06:20:04.882Z,43.97
2023-02-23T06:22:32.124Z,50.58
2023-02-23T06:24:58.688Z,51.80
2023-02-23T06:27:26.214Z,53.53
2023-02-23T06:29:52.728Z,50.03
2023-02-23T06:32:20.095Z,49.65
2023-02-23T06:34:48.958Z,48.90
2023-02-23T06:37:15.926Z,48.88
2023-02-23T06:39:42.561Z,49.35
2023-02-23T06:42:09.264Z,49.08
2023-02-23T06:44:37.108Z,43.42
2023-02-23T06:47:06.365Z,47.53
2023-02-23T06:49:33.047Z,47.25
2023-02-23T06:52:00.386Z,46.90
2023-02-23T06:54:26.786Z,47.15
2023-02-23T06:56:56.872Z,54.30
2023-02-23T06:59:24.266Z,45.60
2023-02-23T07:01:51.427Z,45.30
2023-02-23T07:04:17.932Z,47.72
2023-02-23T07:06:44.986Z,56.95
2023-02-23T07:09:11.414Z,51.17
2023-02-23T07:11:41.651Z,50.67
2023-02-23T07:14:15.288Z,42.42
2023-02-23T07:16:48.655Z,47.72
2023-02-23T07:19:15.071Z,53.40
2023-02-23T07:21:42.092Z,46.85
2023-02-23T07:24:08.923Z,54.67
2023-02-23T07:26:36.409Z,46.58
2023-02-23T07:29:03.241Z,52.78
2023-02-23T07:31:30.487Z,45.35
2023-02-23T07:33:56.977Z,48.97
2023-02-23T07:36:25.005Z,46.88
2023-02-23T07:38:51.471Z,53.58
2023-02-23T07:41:19.084Z,49.83
2023-02-23T07:43:45.725Z,50.15
2023-02-23T07:46:14.616Z,40.90
2023-02-23T07:48:44.917Z,39.42
2023-02-23T07:51:14.171Z,40.92
2023-02-23T07:53:41.566Z,43.58
2023-02-23T07:56:11.190Z,42.70
2023-02-23T07:58:39.656Z,48.30
2023-02-23T08:01:07.963Z,42.00
2023-02-23T08:03:34.692Z,40.05
2023-02-23T08:06:01.877Z,46.90
2023-02-23T08:08:28.502Z,45.75
2023-02-23T08:11:02.995Z,43.08
2023-02-23T08:13:29.840Z,51.65
2023-02-23T08:15:57.349Z,42.60
2023-02-23T08:18:24.509Z,44.53
2023-02-23T08:20:57.830Z,47.72
2023-02-23T08:23:24.256Z,39.13
2023-02-23T08:25:50.991Z,41.00
2023-02-23T08:28:17.399Z,47.45
2023-02-23T08:30:44.483Z,45.55
2023-02-23T08:33:11.060Z,40.47
2023-02-23T08:35:38.126Z,47.25
2023-02-23T08:38:04.678Z,45.88
2023-02-23T08:40:31.916Z,46.50
2023-02-23T08:42:58.389Z,40.70
2023-02-23T08:45:25.580Z,46.65
2023-02-23T08:47:54.437Z,39.88
2023-02-23T08:50:21.880Z,41.50
2023-02-23T08:52:48.404Z,36.17
2023-02-23T08:55:18.284Z,45.63
2023-02-23T08:57:44.791Z,39.93
2023-02-23T09:00:17.040Z,46.38
2023-02-23T09:02:47.502Z,38.10
2023-02-23T09:05:15.460Z,39.80
2023-02-23T09:07:44.958Z,41.40
2023-02-23T09:10:14.945Z,42.95
2023-02-23T09:12:41.387Z,39.53
2023-02-23T09:15:09.579Z,52.63
2023-02-23T09:17:36.102Z,42.67
2023-02-23T09:20:27.125Z,42.13
2023-02-23T09:22:54.031Z,38.92
2023-02-23T09:25:25.466Z,33.95
2023-02-23T09:27:54.144Z,42.35
2023-02-23T09:30:22.129Z,38.38
2023-02-23T09:32:50.900Z,40.88
2023-02-23T09:35:19.778Z,39.17
2023-02-23T09:37:52.582Z,41.08
2023-02-23T09:40:23.797Z,38.25
2023-02-23T09:43:08.806Z,40.15
2023-02-23T09:45:40.437Z,39.50
2023-02-23T09:48:13.739Z,35.05
2023-02-23T09:50:45.208Z,36.53
2023-02-23T09:53:40.737Z,38.03
2023-02-23T09:56:13.536Z,31.75
2023-02-23T09:58:41.041Z,33.20
2023-02-23T10:01:25.901Z,32.58
2023-02-23T10:04:07.892Z,31.63
2023-02-23T10:06:34.817Z,33.42
2023-02-23T10:09:31.240Z,32.88
2023-02-23T10:12:10.122Z,32.38
2023-02-23T10:14:52.780Z,32.45
2023-02-23T10:17:30.501Z,36.97
2023-02-23T10:20:03.934Z,32.22
2023-02-23T10:22:35.579Z,28.83
2023-02-23T10:27:42.167Z,32.35
2023-02-23T10:30:29.247Z,34.53
2023-02-23T10:33:13.809Z,27.15
2023-02-23T10:35:40.334Z,29.65
2023-02-23T10:38:13.883Z,29.17
2023-02-23T10:40:41.586Z,28.02
2023-02-23T10:43:12.542Z,29.67
2023-02-23T10:45:49.007Z,27.77
2023-02-23T10:48:21.369Z,32.20
2023-02-23T10:50:55.245Z,30.63
2023-02-23T10:53:27.794Z,28.92
2023-02-23T10:56:24.737Z,35.97
2023-02-23T10:58:57.192Z,42.45
2023-02-23T11:01:36.394Z,35.40
2023-02-23T11:04:31.050Z,42.03
2023-02-23T11:07:18.245Z,39.38
2023-02-23T11:09:47.820Z,34.05
2023-02-23T11:12:39.804Z,33.95
2023-02-23T11:15:46.447Z,33.55
2023-02-23T11:18:22.876Z,35.60
2023-02-23T11:20:50.082Z,33.22
2023-02-23T11:23:29.964Z,32.55
2023-02-23T11:26:00.822Z,37.35
2023-02-23T11:28:37.857Z,26.85
2023-02-23T11:31:14.893Z,30.20
2023-02-23T11:33:42.130Z,34.05
2023-02-23T11:36:23.774Z,27.90
2023-02-23T11:39:23.748Z,27.30
2023-02-23T11:42:21.397Z,33.75
2023-02-23T11:45:17.814Z,20.58
2023-02-23T11:47:50.015Z,18.52
2023-02-23T11:50:32.479Z,14.02
2023-02-23T11:53:07.156Z,21.13
2023-02-23T11:55:36.839Z,13.35
2023-02-23T11:58:28.807Z,16.52
2023-02-23T12:00:56.486Z,13.60
2023-02-23T12:03:26.485Z,16.80
2023-02-23T12:05:58.935Z,13.55
2023-02-23T12:08:42.286Z,12.52
2023-02-23T12:11:16.664Z,13.70
2023-02-23T12:14:01.100Z,14.63
2023-02-23T12:16:39.315Z,14.10
2023-02-23T12:19:25.890Z,12.30
2023-02-23T12:22:02.772Z,16.05
2023-02-23T12:24:47.392Z,13.75
2023-02-23T12:27:26.961Z,16.17
2023-02-23T12:30:08.470Z,14.73
2023-02-23T12:32:45.730Z,14.95
2023-02-23T12:35:30.729Z,15.80
2023-02-23T12:38:28.113Z,16.83
2023-02-23T12:41:05.955Z,12.60
2023-02-23T12:43:43.091Z,22.27
2023-02-23T12:46:12.798Z,14.05
2023-02-23T12:49:14.114Z,15.93
2023-02-23T12:51:52.463Z,20.63
2023-02-23T12:54:19.597Z,15.52
2023-02-23T12:57:08.542Z,16.15
2023-02-23T12:59:41.601Z,17.30
2023-02-23T13:02:25.795Z,30.83
2023-02-23T13:05:05.130Z,55.95
2023-02-23T13:08:04.792Z,17.10
2023-02-23T13:10:49.802Z,35.13
2023-02-23T13:13:43.699Z,37.72
2023-02-23T13:16:20.386Z,34.45
2023-02-23T13:19:06.977Z,11.65
2023-02-23T13:21:40.867Z,13.55
2023-02-23T13:24:18.902Z,11.88
2023-02-23T13:26:59.895Z,14.93
2023-02-23T13:29:46.480Z,15.63
2023-02-23T13:32:19.664Z,11.95
2023-02-23T13:34:56.666Z,9.40
2023-02-23T13:37:57.818Z,12.07
2023-02-23T13:40:43.740Z,10.48
2023-02-23T13:43:23.044Z,11.95
2023-02-23T13:46:15.296Z,11.45
2023-02-23T13:49:11.029Z,10.30
2023-02-23T13:51:42.870Z,11.55
2023-02-23T13:54:12.306Z,12.40
2023-02-23T13:56:47.032Z,11.80
2023-02-23T13:59:19.549Z,11.20
2023-02-23T14:01:50.064Z,13.43
2023-02-23T14:07:09.587Z,8.40
2023-02-23T14:10:09.257Z,8.73
2023-02-23T14:12:41.109Z,10.25
2023-02-23T14:15:27.364Z,10.38
2023-02-23T14:18:04.634Z,10.27
2023-02-23T14:20:49.835Z,10.48
2023-02-23T14:23:22.323Z,9.48
2023-02-23T14:25:52.255Z,11.07
2023-02-23T14:28:32.439Z,11.30
2023-02-23T14:31:01.751Z,11.55
2023-02-23T14:33:48.337Z,8.00
2023-02-23T14:36:21.476Z,6.70
2023-02-23T14:39:28.442Z,7.45
2023-02-23T14:41:59.026Z,7.05
2023-02-23T14:44:42.575Z,11.32
2023-02-23T14:47:13.227Z,5.15
2023-02-23T14:49:47.113Z,7.07
2023-02-23T14:52:28.751Z,11.90
2023-02-23T14:55:29.443Z,6.65
2023-02-23T14:57:58.010Z,5.80
2023-02-23T15:00:28.183Z,7.82
2023-02-23T15:03:04.588Z,5.55
2023-02-23T15:05:35.605Z,10.68
2023-02-23T15:08:07.717Z,7.88
2023-02-23T15:10:38.652Z,5.72
2023-02-23T15:13:12.224Z,8.27
2023-02-23T15:15:45.337Z,8.38
2023-02-23T15:18:22.465Z,8.45
2023-02-23T15:20:49.730Z,9.63
2023-02-23T15:23:19.128Z,9.00
2023-02-23T15:25:48.149Z,8.00
2023-02-23T15:28:32.758Z,7.90
2023-02-23T15:31:02.156Z,5.97
2023-02-23T15:33:29.380Z,7.03
2023-02-23T15:36:08.072Z,6.05
2023-02-23T15:38:43.745Z,5.25
2023-02-23T15:41:36.773Z,6.60
2023-02-23T15:44:11.568Z,5.38
2023-02-23T15:46:39.162Z,4.82
2023-02-23T15:49:06.837Z,7.50
2023-02-23T15:51:48.638Z,8.10
2023-02-23T15:54:24.514Z,5.93
2023-02-23T15:56:57.146Z,9.48
2023-02-23T15:59:31.086Z,6.35
2023-02-23T16:01:59.828Z,9.23
2023-02-23T16:04:32.854Z,9.32
2023-02-23T16:07:14.520Z,7.65
2023-02-23T16:09:48.847Z,8.43
2023-02-23T16:12:32.542Z,9.57
2023-02-23T16:15:02.893Z,6.95
2023-02-23T16:17:41.548Z,8.20
2023-02-23T16:20:09.258Z,10.07
2023-02-23T16:22:37.580Z,9.35
2023-02-23T16:25:11.250Z,9.88
2023-02-23T16:27:38.689Z,9.60
2023-02-23T16:30:17.614Z,12.75
2023-02-23T16:32:45.150Z,8.90
2023-02-23T16:35:19.111Z,11.18
2023-02-23T16:37:55.249Z,10.25
2023-02-23T16:40:22.544Z,10.50
2023-02-23T16:42:49.098Z,10.40
2023-02-23T16:45:17.193Z,7.20
2023-02-23T16:47:50.171Z,9.15
2023-02-23T16:50:21.514Z,11.93
2023-02-23T16:52:54.621Z,10.38
2023-02-23T16:55:27.671Z,10.38
2023-02-23T16:57:57.663Z,14.48
2023-02-23T17:00:28.896Z,9.65
2023-02-23T17:02:57.380Z,10.00
2023-02-23T17:05:24.857Z,12.32
2023-02-23T17:07:52.878Z,10.63
2023-02-23T17:10:30.863Z,7.88
2023-02-23T17:13:04.920Z,9.02
2023-02-23T17:15:35.414Z,10.88
2023-02-23T17:18:01.932Z,14.63
2023-02-23T17:20:29.533Z,9.93
2023-02-23T17:22:58.757Z,8.15
2023-02-23T17:25:26.522Z,10.77
2023-02-23T17:27:55.381Z,10.55
2023-02-23T17:30:23.254Z,10.07
2023-02-23T17:32:52.982Z,8.65
2023-02-23T17:35:19.973Z,10.87
2023-02-23T17:37:47.448Z,8.07
2023-02-23T17:40:17.438Z,7.88
2023-02-23T17:42:45.223Z,10.60
2023-02-23T17:45:11.694Z,13.35
2023-02-23T17:47:39.811Z,9.95
2023-02-23T17:50:07.257Z,10.52
2023-02-23T17:52:34.357Z,10.25
2023-02-23T17:55:00.869Z,13.60
2023-02-23T17:57:30.983Z,11.15
2023-02-23T17:59:57.743Z,9.57
2023-02-23T18:02:25.611Z,9.27
2023-02-23T18:04:53.077Z,11.07
2023-02-23T18:07:20.811Z,13.20
2023-02-23T18:09:50.354Z,17.83
2023-02-23T18:12:19.484Z,22.60
2023-02-23T18:14:46.736Z,25.63
2023-02-23T18:17:14.321Z,24.42
2023-02-23T18:19:41.226Z,24.67
2023-02-23T18:22:08.164Z,21.73
2023-02-23T18:24:36.085Z,17.35
2023-02-23T18:27:03.909Z,17.90
2023-02-23T18:29:34.039Z,15.90
2023-02-23T18:34:29.718Z,19.60
2023-02-23T18:36:58.911Z,14.18
2023-02-23T18:39:25.637Z,16.15
2023-02-23T18:41:52.152Z,13.52
2023-02-23T18:44:19.265Z,17.50
2023-02-23T18:46:46.801Z,15.23
2023-02-23T18:49:18.912Z,15.20
2023-02-23T18:51:46.977Z,15.10
2023-02-23T18:54:16.775Z,18.92
2023-02-23T18:56:45.927Z,18.55
2023-02-23T18:59:12.495Z,21.42
2023-02-23T19:01:40.167Z,17.15
2023-02-23T19:04:07.963Z,17.30
2023-02-23T19:06:39.236Z,16.52
2023-02-23T19:09:09.594Z,16.35
2023-02-23T19:11:37.902Z,14.60
2023-02-23T19:14:07.708Z,14.48
2023-02-23T19:16:35.786Z,13.00
2023-02-23T19:19:05.106Z,16.50
2023-02-23T19:21:32.569Z,20.30
2023-02-23T19:24:01.224Z,14.02
2023-02-23T19:26:30.062Z,19.27
2023-02-23T19:28:56.915Z,19.85
2023-02-23T19:31:26.586Z,15.98
2023-02-23T19:33:55.850Z,17.23
2023-02-23T19:36:30.017Z,19.73
2023-02-23T19:39:05.931Z,22.23
2023-02-23T19:41:55.687Z,19.88
2023-02-23T19:44:22.189Z,19.10
2023-02-23T19:46:49.416Z,17.27
2023-02-23T19:49:16.532Z,17.05
2023-02-23T19:51:44.574Z,23.92
2023-02-23T19:54:11.459Z,18.75
2023-02-23T19:56:38.689Z,19.15
2023-02-23T19:59:05.673Z,18.20
2023-02-23T20:01:32.955Z,20.48
2023-02-23T20:04:04.247Z,18.90
2023-02-23T20:06:38.849Z,21.35
2023-02-23T20:09:05.800Z,20.27
2023-02-23T20:11:33.136Z,22.30
2023-02-23T20:14:00.372Z,21.13
2023-02-23T20:16:30.060Z,18.10
2023-02-23T20:18:57.747Z,19.70
2023-02-23T20:21:27.530Z,21.13
2023-02-23T20:23:55.744Z,17.67
2023-02-23T20:26:26.772Z,19.33
2023-02-23T20:28:54.494Z,19.27
2023-02-23T20:31:26.786Z,19.83
2023-02-23T20:33:55.943Z,22.65
2023-02-23T20:36:24.439Z,23.25
2023-02-23T20:38:51.336Z,22.20
2023-02-23T20:41:19.471Z,20.65
2023-02-23T20:43:46.418Z,19.17
2023-02-23T20:46:16.183Z,21.10
2023-02-23T20:48:43.028Z,22.25
2023-02-23T20:51:15.092Z,19.33
2023-02-23T20:53:42.237Z,19.40
2023-02-23T20:56:10.234Z,22.30
2023-02-23T20:58:36.901Z,19.73
2023-02-23T21:01:06.806Z,28.00
2023-02-23T21:03:34.540Z,23.92
2023-02-23T21:06:01.770Z,25.05
2023-02-23T21:08:28.904Z,21.75
2023-02-23T21:10:56.262Z,23.65
2023-02-23T21:13:23.165Z,23.25
2023-02-23T21:16:01.490Z,22.70
2023-02-23T21:18:28.977Z,26.60
2023-02-23T21:20:57.058Z,23.73
2023-02-23T21:23:24.601Z,22.83
2023-02-23T21:25:53.394Z,23.05
2023-02-23T21:28:20.790Z,25.85
2023-02-23T21:30:48.229Z,25.05
2023-02-23T21:33:15.056Z,26.83
2023-02-23T21:35:41.848Z,23.65
2023-02-23T21:38:08.383Z,23.85
2023-02-23T21:40:35.982Z,27.08
2023-02-23T21:43:06.434Z,24.13
2023-02-23T21:45:33.165Z,26.90
2023-02-23T21:47:59.748Z,24.42
2023-02-23T21:50:26.862Z,25.17
2023-02-23T21:52:55.967Z,29.33
2023-02-23T21:55:23.073Z,23.63
2023-02-23T21:57:50.845Z,26.08
2023-02-23T22:00:18.768Z,30.85
2023-02-23T22:02:46.250Z,24.25
2023-02-23T22:05:15.831Z,27.98
2023-02-23T22:07:48.648Z,24.13
2023-02-23T22:10:17.247Z,24.95
2023-02-23T22:12:43.640Z,27.50
2023-02-23T22:15:11.382Z,24.92
2023-02-23T22:17:40.672Z,25.65
2023-02-23T22:20:08.604Z,27.20
2023-02-23T22:22:36.013Z,27.50
2023-02-23T22:25:08.331Z,27.70
2023-02-23T22:27:34.843Z,29.05
2023-02-23T22:30:07.006Z,29.60
2023-02-23T22:32:33.720Z,30.45
2023-02-23T22:35:01.111Z,26.77
2023-02-23T22:37:31.859Z,28.65
2023-02-23T22:40:11.865Z,28.33
2023-02-23T22:42:38.362Z,27.50
2023-02-23T22:45:06.346Z,28.73
2023-02-23T22:47:35.881Z,27.92
2023-02-23T22:50:03.347Z,28.87
2023-02-23T22:52:29.858Z,28.63
2023-02-23T22:54:56.724Z,25.48
2023-02-23T22:57:23.465Z,30.15
2023-02-23T23:00:00.638Z,25.83
2023-02-23T23:02:32.069Z,28.70
2023-02-23T23:05:02.575Z,31.67
2023-02-23T23:07:30.929Z,29.45
2023-02-23T23:09:58.622Z,30.00
2023-02-23T23:12:27.854Z,31.70
2023-02-23T23:14:55.994Z,30.80
2023-02-23T23:17:22.501Z,31.23
2023-02-23T23:19:50.221Z,30.65
2023-02-23T23:22:17.325Z,30.27
2023-02-23T23:24:46.381Z,33.40
2023-02-23T23:27:14.500Z,31.90
2023-02-23T23:29:46.823Z,29.98
2023-02-23T23:32:18.476Z,32.47
2023-02-23T23:34:49.649Z,30.90
2023-02-23T23:37:18.615Z,35.40
2023-02-23T23:39:45.955Z,32.70
2023-02-23T23:42:12.964Z,31.67
2023-02-23T23:44:40.038Z,32.22
2023-02-23T23:47:06.785Z,33.22
2023-02-23T23:49:40.106Z,32.97
2023-02-23T23:52:06.952Z,36.45
2023-02-23T23:54:41.095Z,30.15
2023-02-23T23:57:07.773Z,31.92
2023-02-23T23:59:35.704Z,34.28
